Herning, Denmark
Current Conditions -  °F | °C
As of 12:50 AM on Sunday 26 Oct 2014 (Local Time) from EKKA Reporting Station
Broken Clouds Broken Clouds  
Wind Chill: 52°   Ceiling: 4900
Heat Index: 52°   Visibility: 6mi
Dew Point: 48°   Wind: 6mph
Humidity: 88%   Direction: 190°S
Pressure: 30"   Gusts: NA
Location:  56.14°N, 8.97°E
Report Text: EKKA 252250Z AUTO 19005KT 9999NDV BKN049/// 11/09 Q1016
Loading
Personal Weather Stations






























Interactive Weather Map
Tropical Storm Tracking
New forecast layout! Learn more

10-Day Weather Forecast

Advertisements
Track Severe Weather on mobile